createdAt,value
2022-08-20T00:01:19.290Z,10.03
2022-08-20T00:03:53.315Z,10.50
2022-08-20T00:06:25.487Z,11.07
2022-08-20T00:08:57.367Z,10.83
2022-08-20T00:11:29.608Z,10.63
2022-08-20T00:14:04.562Z,10.00
2022-08-20T00:16:38.401Z,10.47
2022-08-20T00:19:10.999Z,11.60
2022-08-20T00:21:43.222Z,10.43
2022-08-20T00:24:15.383Z,11.07
2022-08-20T00:26:51.678Z,10.00
2022-08-20T00:29:24.373Z,9.20
2022-08-20T00:31:56.514Z,8.57
2022-08-20T00:34:28.519Z,9.40
2022-08-20T00:37:00.445Z,8.43
2022-08-20T00:39:32.429Z,7.90
2022-08-20T00:42:04.673Z,8.77
2022-08-20T00:44:37.157Z,7.87
2022-08-20T00:47:09.310Z,8.13
2022-08-20T00:49:42.277Z,7.40
2022-08-20T00:52:18.848Z,8.03
2022-08-20T00:54:54.125Z,7.50
2022-08-20T00:57:59.964Z,7.10
2022-08-20T01:00:34.646Z,6.67
2022-08-20T01:03:09.852Z,7.17
2022-08-20T01:05:47.988Z,7.00
2022-08-20T01:08:21.862Z,7.20
2022-08-20T01:11:08.174Z,6.70
2022-08-20T01:13:41.065Z,7.30
2022-08-20T01:16:19.297Z,6.50
2022-08-20T01:18:51.707Z,6.10
2022-08-20T01:21:34.358Z,6.90
2022-08-20T01:24:21.022Z,7.00
2022-08-20T01:26:55.248Z,6.67
2022-08-20T01:29:31.827Z,7.77
2022-08-20T01:32:05.655Z,8.30
2022-08-20T01:34:37.577Z,9.03
2022-08-20T01:37:09.615Z,7.87
2022-08-20T01:39:43.189Z,9.53
2022-08-20T01:42:27.257Z,8.23
2022-08-20T01:45:00.506Z,8.40
2022-08-20T01:47:38.515Z,8.20
2022-08-20T01:50:18.684Z,7.63
2022-08-20T01:53:08.943Z,7.77
2022-08-20T01:55:41.071Z,6.17
2022-08-20T01:58:14.461Z,6.20
2022-08-20T02:00:46.684Z,5.90
2022-08-20T02:03:18.784Z,5.03
2022-08-20T02:05:53.036Z,5.40
2022-08-20T02:08:24.979Z,5.70
2022-08-20T02:10:57.294Z,6.10
2022-08-20T02:13:29.501Z,6.87
2022-08-20T02:16:06.048Z,7.10
2022-08-20T02:18:37.985Z,6.10
2022-08-20T02:21:10.066Z,6.43
2022-08-20T02:23:42.158Z,5.80
2022-08-20T02:26:14.399Z,7.17
2022-08-20T02:28:49.748Z,6.07
2022-08-20T02:31:22.897Z,6.37
2022-08-20T02:34:22.578Z,6.23
2022-08-20T02:37:07.063Z,6.33
2022-08-20T02:39:39.193Z,5.57
2022-08-20T02:42:12.346Z,7.00
2022-08-20T02:44:44.473Z,8.10
2022-08-20T02:47:17.207Z,7.23
2022-08-20T02:49:49.454Z,8.93
2022-08-20T02:52:21.603Z,8.17
2022-08-20T02:54:53.733Z,9.43
2022-08-20T02:57:25.770Z,11.07
2022-08-20T02:59:58.002Z,11.17
2022-08-20T03:02:30.290Z,10.20
2022-08-20T03:05:02.394Z,11.13
2022-08-20T03:07:53.682Z,11.07
2022-08-20T03:10:28.971Z,10.70
2022-08-20T03:13:02.601Z,11.33
2022-08-20T03:15:34.692Z,13.50
2022-08-20T03:18:06.937Z,13.00
2022-08-20T03:20:39.371Z,14.50
2022-08-20T03:23:12.264Z,14.83
2022-08-20T03:25:44.678Z,13.73
2022-08-20T03:28:18.391Z,13.20
2022-08-20T03:30:51.492Z,13.57
2022-08-20T03:33:24.096Z,13.90
2022-08-20T03:35:56.473Z,14.27
2022-08-20T03:38:32.450Z,13.33
2022-08-20T03:41:05.811Z,13.87
2022-08-20T03:43:37.870Z,14.27
2022-08-20T03:46:22.038Z,13.70
2022-08-20T03:48:59.878Z,12.47
2022-08-20T03:51:51.460Z,13.33
2022-08-20T03:54:31.582Z,12.70
2022-08-20T03:57:05.145Z,14.40
2022-08-20T03:59:45.015Z,14.90
2022-08-20T04:02:17.577Z,14.43
2022-08-20T04:04:49.657Z,14.40
2022-08-20T04:07:27.976Z,15.60
2022-08-20T04:10:00.014Z,15.03
2022-08-20T04:12:31.960Z,15.93
2022-08-20T04:15:04.453Z,14.20
2022-08-20T04:17:42.102Z,15.30
2022-08-20T04:20:18.531Z,15.90
2022-08-20T04:22:58.583Z,15.43
2022-08-20T04:25:36.073Z,16.33
2022-08-20T04:28:11.674Z,15.93
2022-08-20T04:30:51.638Z,18.30
2022-08-20T04:33:33.833Z,17.93
2022-08-20T04:36:07.538Z,15.97
2022-08-20T04:38:48.088Z,16.73
2022-08-20T04:41:24.258Z,16.60
2022-08-20T04:43:56.915Z,17.87
2022-08-20T04:46:29.154Z,16.37
2022-08-20T04:49:03.629Z,17.43
2022-08-20T04:51:35.709Z,16.00
2022-08-20T04:54:09.108Z,17.10
2022-08-20T04:56:41.080Z,16.37
2022-08-20T04:59:13.147Z,17.37
2022-08-20T05:01:45.585Z,18.33
2022-08-20T05:04:17.532Z,15.80
2022-08-20T05:06:49.687Z,16.87
2022-08-20T05:09:21.679Z,16.10
2022-08-20T05:11:53.585Z,13.77
2022-08-20T05:14:25.516Z,14.60
2022-08-20T05:16:57.641Z,16.10
2022-08-20T05:19:29.546Z,15.50
2022-08-20T05:22:01.676Z,14.80
2022-08-20T05:24:34.180Z,15.40
2022-08-20T05:27:06.407Z,15.10
2022-08-20T05:29:38.323Z,14.77
2022-08-20T05:32:12.302Z,14.80
2022-08-20T05:34:44.207Z,15.40
2022-08-20T05:37:17.451Z,14.50
2022-08-20T05:39:50.569Z,14.17
2022-08-20T05:42:22.829Z,14.83
2022-08-20T05:44:54.775Z,13.80
2022-08-20T05:47:28.525Z,13.93
2022-08-20T05:50:02.146Z,13.90
2022-08-20T05:52:34.203Z,12.87
2022-08-20T05:55:08.295Z,13.50
2022-08-20T05:57:42.099Z,12.93
2022-08-20T06:00:14.826Z,13.43
2022-08-20T06:03:05.713Z,13.47
2022-08-20T06:05:38.053Z,13.60
2022-08-20T06:08:11.379Z,13.40
2022-08-20T06:10:44.267Z,12.40
2022-08-20T06:13:16.105Z,12.67
2022-08-20T06:15:48.107Z,13.17
2022-08-20T06:18:28.628Z,13.47
2022-08-20T06:21:00.897Z,13.10
2022-08-20T06:23:40.270Z,14.10
2022-08-20T06:26:29.888Z,13.70
2022-08-20T06:29:04.803Z,12.17
2022-08-20T06:31:39.870Z,14.10
2022-08-20T06:34:11.806Z,13.07
2022-08-20T06:36:46.496Z,13.23
2022-08-20T06:39:18.424Z,14.10
2022-08-20T06:41:51.834Z,13.50
2022-08-20T06:44:24.996Z,12.87
2022-08-20T06:47:01.153Z,13.93
2022-08-20T06:49:36.748Z,15.40
2022-08-20T06:52:08.952Z,13.20
2022-08-20T06:54:45.587Z,14.20
2022-08-20T06:57:17.494Z,11.67
2022-08-20T06:59:54.054Z,12.83
2022-08-20T07:02:29.261Z,12.47
2022-08-20T07:05:04.896Z,11.53
2022-08-20T07:07:37.889Z,13.37
2022-08-20T07:10:12.205Z,11.20
2022-08-20T07:12:46.456Z,9.20
2022-08-20T07:15:19.871Z,10.80
2022-08-20T07:17:58.776Z,9.60
2022-08-20T07:20:35.606Z,9.20
2022-08-20T07:23:08.294Z,8.40
2022-08-20T07:25:43.072Z,9.23
2022-08-20T07:28:20.755Z,7.73
2022-08-20T07:31:13.765Z,9.10
2022-08-20T07:33:46.534Z,7.53
2022-08-20T07:36:22.316Z,8.87
2022-08-20T07:38:54.734Z,7.70
2022-08-20T07:41:29.093Z,7.03
2022-08-20T07:44:01.123Z,7.80
2022-08-20T07:46:33.175Z,5.83
2022-08-20T07:49:09.960Z,6.70
2022-08-20T07:51:41.905Z,6.20
2022-08-20T07:54:13.934Z,6.80
2022-08-20T07:56:45.941Z,6.00
2022-08-20T07:59:18.391Z,6.77
2022-08-20T08:01:50.391Z,5.70
2022-08-20T08:04:24.422Z,6.60
2022-08-20T08:07:00.218Z,6.67
2022-08-20T08:09:33.607Z,5.50
2022-08-20T08:12:05.910Z,7.20
2022-08-20T08:14:38.736Z,5.47
2022-08-20T08:17:11.421Z,6.00
2022-08-20T08:19:47.237Z,6.20
2022-08-20T08:22:19.409Z,5.90
2022-08-20T08:24:57.088Z,5.23
2022-08-20T08:27:33.289Z,5.27
2022-08-20T08:30:06.260Z,5.60
2022-08-20T08:32:58.629Z,5.50
2022-08-20T08:35:32.683Z,4.90
2022-08-20T08:38:04.941Z,5.23
2022-08-20T08:40:38.255Z,5.90
2022-08-20T08:43:12.827Z,4.60
2022-08-20T08:45:48.493Z,4.30
2022-08-20T08:48:21.183Z,4.40
2022-08-20T08:50:54.870Z,3.70
2022-08-20T08:53:33.363Z,4.30
2022-08-20T08:56:06.654Z,3.87
2022-08-20T08:58:38.681Z,3.93
2022-08-20T09:01:55.361Z,3.63
2022-08-20T09:04:09.576Z,3.57
2022-08-20T09:06:43.432Z,3.43
2022-08-20T09:09:21.009Z,3.60
2022-08-20T09:11:55.131Z,3.50
2022-08-20T09:14:27.170Z,3.97
2022-08-20T09:16:59.207Z,3.73
2022-08-20T09:19:32.002Z,4.00
2022-08-20T09:22:11.315Z,4.77
2022-08-20T09:24:43.524Z,5.23
2022-08-20T09:27:15.681Z,4.83
2022-08-20T09:29:49.407Z,4.20
2022-08-20T09:32:22.868Z,3.57
2022-08-20T09:34:56.439Z,3.90
2022-08-20T09:37:35.154Z,3.77
2022-08-20T09:40:09.634Z,3.87
2022-08-20T09:42:41.990Z,3.70
2022-08-20T09:45:14.569Z,3.57
2022-08-20T09:48:01.912Z,3.70
2022-08-20T09:50:35.434Z,4.10
2022-08-20T09:53:07.652Z,4.17
2022-08-20T09:55:42.083Z,3.47
2022-08-20T09:58:19.903Z,3.80
2022-08-20T10:00:52.598Z,3.93
2022-08-20T10:03:24.739Z,4.00
2022-08-20T10:05:56.930Z,4.20
2022-08-20T10:08:29.224Z,5.17
2022-08-20T10:11:01.232Z,4.90
2022-08-20T10:13:33.194Z,4.07
2022-08-20T10:16:05.684Z,4.10
2022-08-20T10:18:37.750Z,4.60
2022-08-20T10:21:13.074Z,4.27
2022-08-20T10:23:45.450Z,3.80
2022-08-20T10:26:17.629Z,3.47
2022-08-20T10:28:49.990Z,4.13
2022-08-20T10:31:22.113Z,4.43
2022-08-20T10:33:54.374Z,5.57
2022-08-20T10:36:26.381Z,10.20
2022-08-20T10:38:58.704Z,4.57
2022-08-20T10:41:30.676Z,4.00
2022-08-20T10:44:04.136Z,4.00
2022-08-20T10:46:36.263Z,4.03
2022-08-20T10:49:08.351Z,4.47
2022-08-20T10:51:40.518Z,5.47
2022-08-20T10:54:13.083Z,4.37
2022-08-20T10:56:45.169Z,4.17
2022-08-20T10:59:17.073Z,3.13
2022-08-20T11:01:49.095Z,4.67
2022-08-20T11:04:20.987Z,3.63
2022-08-20T11:06:53.246Z,4.03
2022-08-20T11:09:25.613Z,4.13
2022-08-20T11:11:57.461Z,4.80
2022-08-20T11:14:29.757Z,3.73
2022-08-20T11:17:02.702Z,3.63
2022-08-20T11:19:39.873Z,4.40
2022-08-20T11:22:11.752Z,4.90
2022-08-20T11:24:44.047Z,3.83
2022-08-20T11:27:25.402Z,3.73
2022-08-20T11:29:57.630Z,3.93
2022-08-20T11:32:29.774Z,4.10
2022-08-20T11:35:13.779Z,3.57
2022-08-20T11:37:55.830Z,3.87
2022-08-20T11:40:29.735Z,3.67
2022-08-20T11:43:18.607Z,3.17
2022-08-20T11:45:54.115Z,3.63
2022-08-20T11:48:26.017Z,2.87
2022-08-20T11:50:58.007Z,3.23
2022-08-20T11:53:30.833Z,3.30
2022-08-20T11:56:04.357Z,4.13
2022-08-20T11:58:36.790Z,3.30
2022-08-20T12:01:09.811Z,3.30
2022-08-20T12:03:41.783Z,3.20
2022-08-20T12:06:14.081Z,3.37
2022-08-20T12:08:46.003Z,2.73
2022-08-20T12:11:17.915Z,3.20
2022-08-20T12:13:50.005Z,2.80
2022-08-20T12:16:22.089Z,2.50
2022-08-20T12:18:53.987Z,3.30
2022-08-20T12:21:28.683Z,2.30
2022-08-20T12:24:02.704Z,2.70
2022-08-20T12:26:34.932Z,2.77
2022-08-20T12:29:07.162Z,2.70
2022-08-20T12:31:39.229Z,2.83
2022-08-20T12:34:11.321Z,2.30
2022-08-20T12:36:43.396Z,2.37
2022-08-20T12:39:15.427Z,2.50
2022-08-20T12:41:47.878Z,2.73
2022-08-20T12:44:20.359Z,2.67
2022-08-20T12:46:52.407Z,2.17
2022-08-20T12:49:24.671Z,2.10
2022-08-20T12:51:56.797Z,2.03
2022-08-20T12:54:29.075Z,2.07
2022-08-20T12:57:01.231Z,2.73
2022-08-20T12:59:33.383Z,1.77
2022-08-20T13:02:14.220Z,2.17
2022-08-20T13:04:50.936Z,2.03
2022-08-20T13:07:23.293Z,1.77
2022-08-20T13:09:55.711Z,1.77
2022-08-20T13:12:28.152Z,2.70
2022-08-20T13:15:00.439Z,1.87
2022-08-20T13:17:39.164Z,1.97
2022-08-20T13:20:15.300Z,2.10
2022-08-20T13:22:47.284Z,1.90
2022-08-20T13:25:19.721Z,2.50
2022-08-20T13:27:57.626Z,2.00
2022-08-20T13:30:30.302Z,2.27
2022-08-20T13:33:02.389Z,2.30
2022-08-20T13:35:34.501Z,2.40
2022-08-20T13:38:06.630Z,2.87
2022-08-20T13:40:38.783Z,2.23
2022-08-20T13:43:12.002Z,2.13
2022-08-20T13:45:44.317Z,2.33
2022-08-20T13:48:16.741Z,2.80
2022-08-20T13:50:48.992Z,1.87
2022-08-20T13:53:21.299Z,2.23
2022-08-20T13:55:53.617Z,1.80
2022-08-20T13:58:25.713Z,2.10
2022-08-20T14:00:58.078Z,2.47
2022-08-20T14:03:30.699Z,1.57
2022-08-20T14:06:04.018Z,2.20
2022-08-20T14:08:36.694Z,2.00
2022-08-20T14:11:08.640Z,2.80
2022-08-20T14:13:46.022Z,2.40
2022-08-20T14:16:21.317Z,2.13
2022-08-20T14:18:59.417Z,2.20
2022-08-20T14:21:31.715Z,1.80
2022-08-20T14:24:03.854Z,2.00
2022-08-20T14:26:36.490Z,2.50
2022-08-20T14:29:08.410Z,2.93
2022-08-20T14:31:40.749Z,2.00
2022-08-20T14:34:13.115Z,1.60
2022-08-20T14:36:45.206Z,2.10
2022-08-20T14:39:20.602Z,1.90
2022-08-20T14:41:52.611Z,2.33
2022-08-20T14:44:24.769Z,1.57
2022-08-20T14:46:56.986Z,2.00
2022-08-20T14:49:29.144Z,2.70
2022-08-20T14:52:01.245Z,1.97
2022-08-20T14:54:33.180Z,2.57
2022-08-20T14:57:05.796Z,1.97
2022-08-20T14:59:45.306Z,2.50
2022-08-20T15:02:17.946Z,2.73
2022-08-20T15:04:52.303Z,1.80
2022-08-20T15:07:33.026Z,2.20
2022-08-20T15:10:08.303Z,2.77
2022-08-20T15:12:43.041Z,1.93
2022-08-20T15:15:16.825Z,2.20
2022-08-20T15:17:55.215Z,1.80
2022-08-20T15:20:29.340Z,1.93
2022-08-20T15:23:02.184Z,1.80
2022-08-20T15:25:36.463Z,2.30
2022-08-20T15:28:10.168Z,2.10
2022-08-20T15:30:42.367Z,2.23
2022-08-20T15:33:14.494Z,2.60
2022-08-20T15:35:46.504Z,3.60
2022-08-20T15:38:18.633Z,2.13
2022-08-20T15:40:50.531Z,2.20
2022-08-20T15:43:22.709Z,2.40
2022-08-20T15:45:54.899Z,2.67
2022-08-20T15:48:41.421Z,2.63
2022-08-20T15:51:22.649Z,3.07
2022-08-20T15:54:06.592Z,2.03
2022-08-20T15:57:13.590Z,2.73
2022-08-20T16:00:14.377Z,2.60
2022-08-20T16:03:07.289Z,2.47
2022-08-20T16:05:47.677Z,3.00
2022-08-20T16:08:35.346Z,2.00
2022-08-20T16:11:16.094Z,2.30
2022-08-20T16:13:55.455Z,2.20
2022-08-20T16:16:29.556Z,2.63
2022-08-20T16:19:02.891Z,2.10
2022-08-20T16:21:37.849Z,1.67
2022-08-20T16:24:10.802Z,2.70
2022-08-20T16:26:51.577Z,2.47
2022-08-20T16:30:01.883Z,1.70
2022-08-20T16:32:38.503Z,1.80
2022-08-20T16:35:35.033Z,2.00
2022-08-20T16:38:20.887Z,2.33
2022-08-20T16:40:57.222Z,3.90
2022-08-20T16:43:34.527Z,2.70
2022-08-20T16:46:17.318Z,2.20
2022-08-20T16:48:57.930Z,2.60
2022-08-20T16:51:37.065Z,3.03
2022-08-20T16:54:10.400Z,3.23
2022-08-20T16:56:48.320Z,2.07
2022-08-20T16:59:21.150Z,1.93
2022-08-20T17:02:07.368Z,3.33
2022-08-20T17:04:59.980Z,2.20
2022-08-20T17:07:46.661Z,3.30
2022-08-20T17:10:26.055Z,2.07
2022-08-20T17:13:03.536Z,2.30
2022-08-20T17:15:35.869Z,2.30
2022-08-20T17:18:20.855Z,2.87
2022-08-20T17:20:53.379Z,1.90
2022-08-20T17:23:25.278Z,2.97
2022-08-20T17:26:03.837Z,2.00
2022-08-20T17:28:36.137Z,2.33
2022-08-20T17:31:08.098Z,2.70
2022-08-20T17:33:40.085Z,2.37
2022-08-20T17:36:20.261Z,2.90
2022-08-20T17:38:55.164Z,1.67
2022-08-20T17:41:27.124Z,1.83
2022-08-20T17:44:06.136Z,2.30
2022-08-20T17:46:45.731Z,2.17
2022-08-20T17:49:31.003Z,1.67
2022-08-20T17:52:06.898Z,3.40
2022-08-20T17:54:42.585Z,2.33
2022-08-20T17:57:18.277Z,2.43
2022-08-20T18:00:02.471Z,1.97
2022-08-20T18:02:37.594Z,2.27
2022-08-20T18:05:14.823Z,1.93
2022-08-20T18:08:08.136Z,3.37
2022-08-20T18:10:57.690Z,2.60
2022-08-20T18:13:35.541Z,3.10
2022-08-20T18:16:25.802Z,3.57
2022-08-20T18:19:19.015Z,2.70
2022-08-20T18:22:21.271Z,2.90
2022-08-20T18:25:34.957Z,2.43
2022-08-20T18:28:19.277Z,2.20
2022-08-20T18:30:57.506Z,2.30
2022-08-20T18:33:34.090Z,2.67
2022-08-20T18:36:27.976Z,2.73
2022-08-20T18:39:24.361Z,2.73
2022-08-20T18:42:00.747Z,2.73
2022-08-20T18:44:43.917Z,3.30
2022-08-20T18:47:43.476Z,2.90
2022-08-20T18:50:22.769Z,2.70
2022-08-20T18:53:17.353Z,2.77
2022-08-20T18:56:08.454Z,2.57
2022-08-20T18:59:17.986Z,3.80
2022-08-20T19:01:50.179Z,3.53
2022-08-20T19:04:31.969Z,3.27
2022-08-20T19:07:06.240Z,3.10
2022-08-20T19:09:52.285Z,2.60
2022-08-20T19:12:33.123Z,3.90
2022-08-20T19:15:08.866Z,3.23
2022-08-20T19:18:08.926Z,3.03
2022-08-20T19:20:48.930Z,2.90
2022-08-20T19:23:25.848Z,3.50
2022-08-20T19:26:24.755Z,3.40
2022-08-20T19:29:00.994Z,3.70
2022-08-20T19:31:34.632Z,3.63
2022-08-20T19:34:22.136Z,3.30
2022-08-20T19:37:04.533Z,3.57
2022-08-20T19:39:52.700Z,3.70
2022-08-20T19:42:28.321Z,3.30
2022-08-20T19:45:06.736Z,3.73
2022-08-20T19:48:03.617Z,4.50
2022-08-20T19:50:51.465Z,4.60
2022-08-20T19:53:31.845Z,4.37
2022-08-20T19:56:15.413Z,4.10
2022-08-20T19:58:59.532Z,4.20
2022-08-20T20:01:32.140Z,4.50
2022-08-20T20:04:07.037Z,4.50
2022-08-20T20:06:45.219Z,4.10
2022-08-20T20:09:22.206Z,4.37
2022-08-20T20:12:09.079Z,3.97
2022-08-20T20:14:41.519Z,3.80
2022-08-20T20:17:22.969Z,4.83
2022-08-20T20:20:02.119Z,4.53
2022-08-20T20:22:47.158Z,4.40
2022-08-20T20:25:21.301Z,4.73
2022-08-20T20:27:55.794Z,5.67
2022-08-20T20:30:30.940Z,5.33
2022-08-20T20:33:15.693Z,5.07
2022-08-20T20:35:47.978Z,4.43
2022-08-20T20:38:26.932Z,5.13
2022-08-20T20:41:03.708Z,3.90
2022-08-20T20:43:42.002Z,3.57
2022-08-20T20:46:22.551Z,3.50
2022-08-20T20:48:59.168Z,3.17
2022-08-20T20:51:34.283Z,3.63
2022-08-20T20:54:25.899Z,3.80
2022-08-20T20:57:03.825Z,4.10
2022-08-20T20:59:36.155Z,3.57
2022-08-20T21:02:08.487Z,3.97
2022-08-20T21:04:42.716Z,4.50
2022-08-20T21:07:17.835Z,4.87
2022-08-20T21:09:51.966Z,4.00
2022-08-20T21:12:24.114Z,4.00
2022-08-20T21:14:56.156Z,3.87
2022-08-20T21:17:28.439Z,3.77
2022-08-20T21:20:01.871Z,4.03
2022-08-20T21:22:34.020Z,3.60
2022-08-20T21:25:06.441Z,3.80
2022-08-20T21:27:47.701Z,3.70
2022-08-20T21:30:21.735Z,3.43
2022-08-20T21:32:54.165Z,3.30
2022-08-20T21:35:26.698Z,3.57
2022-08-20T21:37:58.696Z,5.00
2022-08-20T21:40:30.885Z,3.73
2022-08-20T21:43:03.270Z,4.27
2022-08-20T21:45:38.223Z,4.00
2022-08-20T21:48:10.301Z,4.03
2022-08-20T21:50:42.391Z,4.80
2022-08-20T21:53:14.425Z,4.03
2022-08-20T21:55:46.520Z,4.17
2022-08-20T21:58:19.423Z,4.73
2022-08-20T22:00:57.717Z,4.70
2022-08-20T22:03:38.482Z,4.40
2022-08-20T22:06:13.612Z,3.37
2022-08-20T22:08:45.589Z,6.13
2022-08-20T22:11:17.835Z,4.47
2022-08-20T22:13:49.980Z,5.00
2022-08-20T22:16:22.279Z,4.57
2022-08-20T22:18:54.326Z,5.47
2022-08-20T22:21:29.343Z,6.30
2022-08-20T22:24:05.961Z,6.30
2022-08-20T22:26:40.163Z,6.50
2022-08-20T22:29:12.880Z,5.60
2022-08-20T22:31:45.021Z,5.23
2022-08-20T22:34:19.072Z,5.20
2022-08-20T22:36:53.534Z,6.10
2022-08-20T22:39:25.595Z,5.40
2022-08-20T22:41:57.657Z,4.47
2022-08-20T22:44:29.678Z,4.70
2022-08-20T22:47:05.555Z,6.80
2022-08-20T22:49:39.823Z,6.07
2022-08-20T22:52:12.243Z,5.47
2022-08-20T22:54:45.884Z,5.90
2022-08-20T22:57:19.378Z,6.20
2022-08-20T22:59:53.224Z,6.30
2022-08-20T23:02:25.537Z,6.73
2022-08-20T23:04:57.668Z,4.90
2022-08-20T23:07:29.747Z,4.37
2022-08-20T23:10:01.815Z,6.10
2022-08-20T23:12:33.837Z,6.10
2022-08-20T23:15:06.724Z,5.40
2022-08-20T23:17:38.954Z,5.20
2022-08-20T23:20:13.836Z,5.30
2022-08-20T23:22:45.758Z,5.30
2022-08-20T23:25:17.831Z,5.53
2022-08-20T23:27:51.256Z,5.03
2022-08-20T23:30:24.501Z,5.07
2022-08-20T23:32:56.668Z,5.10
2022-08-20T23:35:32.038Z,5.17
2022-08-20T23:38:05.263Z,4.67
2022-08-20T23:40:38.758Z,5.73
2022-08-20T23:43:11.266Z,5.00
2022-08-20T23:45:43.396Z,5.10
2022-08-20T23:48:15.344Z,5.53
2022-08-20T23:50:47.441Z,4.80
2022-08-20T23:53:19.409Z,4.20
2022-08-20T23:55:51.310Z,4.60
2022-08-20T23:58:23.549Z,4.60
